Time;durP1;ratioP1;P1;durP2;ratioP2;P2;SDS_P1;SDS_P2;PMS_P1;PMS_P2;Temp;Humidity;BMP_temperature;BMP_pressure;BME280_temperature;BME280_humidity;BME280_pressure;Samples;Min_cycle;Max_cycle;Signal;HPM_P1;HPM_P2
2022/03/09 00:01:26;;;;;;;9.57;3.92;;;1.10;66.70;;;;;;5041010;28;20060;-70
2022/03/09 00:04:00;;;;;;;7.00;2.83;;;1.10;66.70;;;;;;5048295;28;20060;-70
2022/03/09 00:06:27;;;;;;;6.82;3.60;;;1.00;66.80;;;;;;5037839;28;20040;-70
2022/03/09 00:08:54;;;;;;;6.05;3.30;;;1.10;66.80;;;;;;5044493;28;20051;-70
2022/03/09 00:11:21;;;;;;;6.55;3.20;;;1.10;66.80;;;;;;5052133;28;20051;-70
2022/03/09 00:13:48;;;;;;;7.07;3.35;;;1.10;66.90;;;;;;5055757;28;20044;-70
2022/03/09 00:16:15;;;;;;;8.88;3.83;;;1.10;66.90;;;;;;5054238;28;20842;-70
2022/03/09 00:18:42;;;;;;;9.40;3.25;;;1.00;67.10;;;;;;5039469;28;20044;-69
2022/03/09 00:21:11;;;;;;;9.95;3.75;;;1.00;67.20;;;;;;5046322;28;20049;-71
2022/03/09 00:23:38;;;;;;;12.73;3.63;;;1.00;67.30;;;;;;5039315;28;20063;-70
2022/03/09 00:26:05;;;;;;;7.68;3.83;;;1.00;67.10;;;;;;5030109;28;20351;-69
2022/03/09 00:28:32;;;;;;;6.90;2.80;;;1.00;67.20;;;;;;5031928;28;20041;-71
2022/03/09 00:30:59;;;;;;;7.45;2.90;;;1.00;67.20;;;;;;5033426;28;20073;-69
2022/03/09 00:33:26;;;;;;;7.28;3.28;;;1.00;67.20;;;;;;5032860;28;20090;-72
2022/03/09 00:35:53;;;;;;;8.90;3.90;;;1.00;67.30;;;;;;5033777;28;20051;-71
2022/03/09 00:38:23;;;;;;;13.00;4.35;;;1.00;67.40;;;;;;5036906;28;20080;-71
2022/03/09 00:40:50;;;;;;;6.83;2.87;;;0.90;67.50;;;;;;5039309;28;20052;-71
2022/03/09 00:43:18;;;;;;;6.22;3.42;;;0.80;67.70;;;;;;5053872;28;20553;-68
2022/03/09 00:45:48;;;;;;;5.75;2.58;;;0.80;67.80;;;;;;5058529;28;20527;-70
2022/03/09 00:48:15;;;;;;;10.43;3.58;;;0.80;67.80;;;;;;5053760;28;20157;-70
2022/03/09 00:50:42;;;;;;;4.63;2.47;;;0.70;67.80;;;;;;5053691;28;20069;-70
2022/03/09 00:53:09;;;;;;;6.72;3.58;;;0.70;67.90;;;;;;5052834;28;20036;-70
2022/03/09 00:55:37;;;;;;;7.30;2.72;;;0.70;68.00;;;;;;5051410;28;20052;-71
2022/03/09 00:58:04;;;;;;;9.15;3.35;;;0.70;67.90;;;;;;5040194;28;20044;-70
2022/03/09 01:00:31;;;;;;;7.43;3.58;;;0.70;68.10;;;;;;5043399;28;20076;-71
2022/03/09 01:02:58;;;;;;;6.45;2.60;;;0.70;68.00;;;;;;5042718;28;20048;-71
2022/03/09 01:05:25;;;;;;;10.85;2.63;;;0.60;68.10;;;;;;5045916;28;20049;-71
2022/03/09 01:07:52;;;;;;;4.47;1.88;;;0.60;68.10;;;;;;5054847;28;20051;-70
2022/03/09 01:10:19;;;;;;;4.95;2.20;;;0.60;68.00;;;;;;5050171;28;20045;-70
2022/03/09 01:12:49;;;;;;;6.95;2.78;;;0.60;68.00;;;;;;5052242;28;20078;-70
2022/03/09 01:15:16;;;;;;;5.30;2.45;;;0.60;68.00;;;;;;5058403;28;20048;-71
2022/03/09 01:17:43;;;;;;;4.68;2.00;;;0.60;68.10;;;;;;5054305;28;20068;-71
2022/03/09 01:20:11;;;;;;;7.78;3.22;;;0.50;68.20;;;;;;5053840;28;20407;-70
2022/03/09 01:22:39;;;;;;;4.63;2.10;;;0.50;68.20;;;;;;5055666;28;20068;-69
2022/03/09 01:25:07;;;;;;;6.95;2.20;;;0.50;68.10;;;;;;5050630;28;20047;-68
2022/03/09 01:27:34;;;;;;;5.47;1.98;;;0.50;68.00;;;;;;5058164;28;20106;-71
2022/03/09 01:30:03;;;;;;;4.82;1.90;;;0.50;68.10;;;;;;5051228;28;20075;-69
2022/03/09 01:32:30;;;;;;;5.20;2.35;;;0.40;68.20;;;;;;5056567;28;20124;-70
2022/03/09 01:35:00;;;;;;;4.55;1.95;;;0.40;68.20;;;;;;5055956;28;20047;-71
2022/03/09 01:37:30;;;;;;;8.07;2.45;;;0.40;68.30;;;;;;5051306;28;20064;-71
2022/03/09 01:39:57;;;;;;;4.47;2.25;;;0.40;68.30;;;;;;5047903;28;20056;-70
2022/03/09 01:42:24;;;;;;;5.13;2.30;;;0.30;68.30;;;;;;5059356;28;20145;-69
2022/03/09 01:44:51;;;;;;;7.22;3.25;;;0.30;68.20;;;;;;5050630;28;20044;-69
2022/03/09 01:47:19;;;;;;;5.65;2.95;;;0.30;68.30;;;;;;5050428;28;20064;-71
2022/03/09 01:49:46;;;;;;;6.28;2.70;;;0.30;68.40;;;;;;5048467;28;20052;-71
2022/03/09 01:52:16;;;;;;;7.72;2.78;;;0.30;68.40;;;;;;5054048;28;20048;-70
2022/03/09 01:54:43;;;;;;;5.47;2.45;;;0.30;68.40;;;;;;5063366;28;20884;-69
2022/03/09 01:57:10;;;;;;;6.97;2.10;;;0.30;68.60;;;;;;5055726;28;20124;-69
2022/03/09 01:59:37;;;;;;;9.80;2.88;;;0.20;68.50;;;;;;5055906;28;20040;-71
2022/03/09 02:02:07;;;;;;;4.47;2.55;;;0.20;68.60;;;;;;5054527;28;20087;-70
2022/03/09 02:04:35;;;;;;;5.95;2.45;;;0.20;68.70;;;;;;5051815;28;20117;-70
2022/03/09 02:07:02;;;;;;;5.72;2.47;;;0.20;68.70;;;;;;5053043;28;20052;-70
2022/03/09 02:09:43;;;;;;;7.30;2.28;;;0.20;68.70;;;;;;5054825;28;20107;-70
2022/03/09 02:12:14;;;;;;;3.35;1.65;;;0.20;68.80;;;;;;5055715;28;20501;-69
2022/03/09 02:14:43;;;;;;;3.80;1.60;;;0.10;68.90;;;;;;5047289;28;20048;-70
2022/03/09 02:17:13;;;;;;;5.60;1.98;;;0.10;68.90;;;;;;5055003;28;20501;-69
2022/03/09 02:19:43;;;;;;;6.57;2.63;;;0.10;68.90;;;;;;5054801;28;20049;-70
2022/03/09 02:22:17;;;;;;;5.53;2.13;;;0.10;69.00;;;;;;5043260;28;20128;-70
2022/03/09 02:24:46;;;;;;;6.15;2.15;;;0.00;69.10;;;;;;5048284;28;20072;-69
2022/03/09 02:27:13;;;;;;;5.22;1.85;;;0.00;69.10;;;;;;5059854;28;20136;-70
2022/03/09 02:29:41;;;;;;;5.40;1.98;;;0.10;69.20;;;;;;5056926;28;20047;-70
2022/03/09 02:32:08;;;;;;;4.75;2.33;;;0.00;69.30;;;;;;5057861;28;20459;-70
2022/03/09 02:34:36;;;;;;;6.63;1.67;;;0.00;69.30;;;;;;5053431;28;20040;-69
2022/03/09 02:37:04;;;;;;;5.25;2.55;;;0.10;69.40;;;;;;5054114;28;20036;-68
2022/03/09 02:39:31;;;;;;;6.65;3.17;;;0.10;69.50;;;;;;5055499;28;20056;-69
2022/03/09 02:42:00;;;;;;;7.22;2.70;;;0.10;69.60;;;;;;5055635;28;20041;-69
2022/03/09 02:44:28;;;;;;;5.80;2.50;;;0.10;69.60;;;;;;5057501;28;20055;-69
2022/03/09 02:46:58;;;;;;;5.00;2.17;;;0.10;69.60;;;;;;5046601;28;20039;-70
2022/03/09 02:49:28;;;;;;;5.22;2.78;;;0.10;69.40;;;;;;5051761;28;20127;-68
2022/03/09 02:51:55;;;;;;;6.30;2.90;;;0.10;69.50;;;;;;5053327;28;20578;-70
2022/03/09 02:54:25;;;;;;;7.38;2.80;;;0.10;69.60;;;;;;5056538;28;20045;-69
2022/03/09 02:56:55;;;;;;;8.90;4.10;;;0.10;69.60;;;;;;5053294;28;20093;-69
2022/03/09 02:59:23;;;;;;;6.18;3.22;;;0.00;69.70;;;;;;5050701;28;20052;-70
2022/03/09 03:01:50;;;;;;;12.02;3.33;;;0.10;69.80;;;;;;5053450;28;20044;-70
2022/03/09 03:04:18;;;;;;;6.80;3.60;;;0.00;69.90;;;;;;5049326;28;20607;-71
2022/03/09 03:06:45;;;;;;;6.85;2.50;;;0.00;69.90;;;;;;5053798;28;20479;-70
2022/03/09 03:09:12;;;;;;;4.95;3.35;;;0.00;70.00;;;;;;5046585;28;20045;-70
2022/03/09 03:11:39;;;;;;;5.20;3.05;;;0.00;69.90;;;;;;5057128;28;20036;-71
2022/03/09 03:14:08;;;;;;;6.75;3.42;;;0.00;69.70;;;;;;5050990;28;20080;-70
2022/03/09 03:16:39;;;;;;;5.20;3.03;;;0.00;69.70;;;;;;5052260;28;20609;-69
2022/03/09 03:19:06;;;;;;;5.22;2.95;;;0.00;69.70;;;;;;5047433;28;20052;-71
2022/03/09 03:21:34;;;;;;;5.18;2.63;;;0.00;69.80;;;;;;5040475;28;20466;-68
2022/03/09 03:24:01;;;;;;;7.75;2.45;;;-3276.70;69.70;;;;;;5054946;28;20052;-70
2022/03/09 03:26:30;;;;;;;6.72;3.47;;;-3276.70;69.80;;;;;;5052049;28;20107;-69
2022/03/09 03:29:01;;;;;;;9.45;3.78;;;-3276.70;69.80;;;;;;5041659;28;20052;-70
2022/03/09 03:31:30;;;;;;;5.72;3.60;;;-3276.70;69.80;;;;;;5049796;28;20094;-69
2022/03/09 03:33:58;;;;;;;9.15;2.95;;;-3276.60;69.80;;;;;;5050230;28;20482;-70
2022/03/09 03:36:26;;;;;;;7.93;2.72;;;-3276.60;69.80;;;;;;5035990;28;20044;-68
2022/03/09 03:38:53;;;;;;;5.82;2.90;;;-3276.60;69.90;;;;;;5035246;28;20262;-69
2022/03/09 03:41:20;;;;;;;8.82;2.83;;;-3276.60;70.10;;;;;;5056221;28;20072;-71
2022/03/09 03:43:47;;;;;;;8.25;2.88;;;-3276.60;70.00;;;;;;5036361;28;20037;-71
2022/03/09 03:46:14;;;;;;;6.43;3.03;;;-3276.60;70.00;;;;;;5038339;28;20045;-69
2022/03/09 03:48:40;;;;;;;6.60;2.47;;;-3276.50;70.10;;;;;;5054107;28;20043;-70
2022/03/09 03:51:09;;;;;;;5.68;2.58;;;-3276.50;70.20;;;;;;5049534;28;20048;-70
2022/03/09 03:53:36;;;;;;;5.65;2.47;;;-3276.50;70.00;;;;;;5034091;28;20057;-68
2022/03/09 03:56:03;;;;;;;5.63;2.65;;;-3276.50;70.10;;;;;;5045665;28;20053;-70
2022/03/09 03:58:30;;;;;;;5.45;2.65;;;-3276.50;70.20;;;;;;5044810;28;20299;-71
2022/03/09 04:00:57;;;;;;;4.63;2.83;;;-3276.50;70.30;;;;;;5047946;28;20048;-70
2022/03/09 04:03:24;;;;;;;5.22;2.17;;;-3276.50;70.40;;;;;;5045071;28;20042;-69
2022/03/09 04:05:51;;;;;;;8.68;3.22;;;-3276.40;70.60;;;;;;5040610;28;20056;-70
2022/03/09 04:08:19;;;;;;;5.75;2.80;;;-3276.50;70.60;;;;;;5046068;28;20044;-69
2022/03/09 04:10:46;;;;;;;7.15;2.40;;;-3276.50;70.60;;;;;;5043186;28;20042;-70
2022/03/09 04:13:13;;;;;;;5.60;2.67;;;-3276.40;70.80;;;;;;5041430;28;20998;-71
2022/03/09 04:15:40;;;;;;;7.07;3.22;;;-3276.40;70.90;;;;;;5038493;28;20040;-70
2022/03/09 04:18:07;;;;;;;7.80;3.05;;;-3276.40;70.80;;;;;;5054469;28;20140;-70
2022/03/09 04:20:34;;;;;;;8.82;3.63;;;-3276.40;70.90;;;;;;5053904;28;20156;-70
2022/03/09 04:23:01;;;;;;;9.50;3.25;;;-3276.40;70.90;;;;;;5056486;28;20044;-70
2022/03/09 04:25:30;;;;;;;6.60;2.42;;;-3276.40;70.80;;;;;;5049865;28;20049;-70
2022/03/09 04:27:57;;;;;;;9.13;3.50;;;-3276.50;70.80;;;;;;5054620;28;20149;-70
2022/03/09 04:30:24;;;;;;;8.57;2.85;;;-3276.50;70.70;;;;;;5050088;28;20051;-70
2022/03/09 04:32:50;;;;;;;7.70;4.05;;;-3276.50;70.70;;;;;;5045057;28;20033;-70
2022/03/09 04:35:18;;;;;;;7.03;2.80;;;-3276.40;70.80;;;;;;5035481;28;20134;-71
2022/03/09 04:37:45;;;;;;;8.75;3.03;;;-3276.40;70.90;;;;;;5054614;28;20033;-70
2022/03/09 04:40:13;;;;;;;6.55;2.80;;;-3276.40;70.90;;;;;;5056302;28;20055;-70
2022/03/09 04:42:41;;;;;;;8.07;2.67;;;-3276.40;70.80;;;;;;5048450;28;20044;-70
2022/03/09 04:45:09;;;;;;;7.20;3.40;;;-3276.40;70.80;;;;;;5041994;28;20128;-70
2022/03/09 04:47:36;;;;;;;5.05;1.80;;;-3276.40;70.80;;;;;;5053138;28;20036;-71
2022/03/09 04:50:03;;;;;;;7.00;2.58;;;-3276.40;70.70;;;;;;5041192;28;20041;-70
2022/03/09 04:52:30;;;;;;;10.13;3.88;;;-3276.30;70.80;;;;;;5052067;28;20060;-69
2022/03/09 04:54:57;;;;;;;7.75;3.50;;;-3276.30;70.80;;;;;;5056612;28;20492;-71
2022/03/09 04:57:25;;;;;;;8.20;3.63;;;-3276.30;70.80;;;;;;5046152;28;20053;-70
2022/03/09 04:59:53;;;;;;;6.47;3.78;;;-3276.30;70.70;;;;;;5056224;28;20056;-71
2022/03/09 05:02:21;;;;;;;4.60;2.42;;;-3276.20;70.60;;;;;;5040882;28;20049;-71
2022/03/09 05:04:48;;;;;;;7.63;3.53;;;-3276.20;70.80;;;;;;5058455;28;20045;-70
2022/03/09 05:07:15;;;;;;;7.45;2.33;;;-3276.10;70.90;;;;;;5055959;28;20052;-70
2022/03/09 05:09:43;;;;;;;6.13;3.63;;;-3276.10;70.90;;;;;;5049092;28;20487;-71
2022/03/09 05:12:10;;;;;;;7.35;3.20;;;-3276.20;70.80;;;;;;5059529;28;20047;-71
2022/03/09 05:14:37;;;;;;;9.13;3.22;;;-3276.20;70.90;;;;;;5058297;28;20167;-70
2022/03/09 05:17:05;;;;;;;11.57;3.45;;;-3276.20;70.90;;;;;;5052097;28;20072;-70
2022/03/09 05:19:32;;;;;;;5.13;2.05;;;-3276.20;70.90;;;;;;5055569;28;20036;-70
2022/03/09 05:21:59;;;;;;;5.15;2.33;;;-3276.20;71.00;;;;;;5044137;28;20037;-70
2022/03/09 05:24:27;;;;;;;8.80;3.08;;;-3276.20;70.90;;;;;;5043756;28;20587;-70
2022/03/09 05:26:54;;;;;;;9.65;3.85;;;-3276.20;70.90;;;;;;5042463;28;20060;-69
2022/03/09 05:29:22;;;;;;;7.53;2.63;;;-3276.10;71.20;;;;;;5046151;28;20045;-71
2022/03/09 05:31:49;;;;;;;12.90;2.70;;;-3276.10;71.40;;;;;;5046477;28;20450;-71
2022/03/09 05:34:17;;;;;;;8.93;2.88;;;-3276.10;71.40;;;;;;5042755;28;20684;-71
2022/03/09 05:36:44;;;;;;;8.70;3.95;;;-3276.10;71.40;;;;;;5045474;28;20080;-69
2022/03/09 05:39:12;;;;;;;9.70;3.15;;;-3276.10;71.50;;;;;;5046704;28;20057;-70
2022/03/09 05:41:39;;;;;;;5.53;3.20;;;-3276.10;71.60;;;;;;5050746;28;20041;-70
2022/03/09 05:44:06;;;;;;;5.65;2.55;;;-3276.10;71.60;;;;;;5048106;28;20120;-69
2022/03/09 05:46:34;;;;;;;10.07;3.10;;;-3276.10;71.50;;;;;;5069802;28;20045;-69
2022/03/09 05:49:01;;;;;;;6.18;2.67;;;-3276.10;71.60;;;;;;5051851;28;20116;-71
2022/03/09 05:51:30;;;;;;;4.43;2.25;;;-3276.00;71.70;;;;;;5045150;28;20621;-69
2022/03/09 05:53:57;;;;;;;5.00;2.30;;;-3276.00;71.70;;;;;;5053102;28;20040;-70
2022/03/09 05:56:24;;;;;;;7.57;2.90;;;-3276.10;71.70;;;;;;5047158;28;20044;-71
2022/03/09 05:58:52;;;;;;;5.68;2.95;;;-3276.10;71.70;;;;;;5049206;28;20044;-69
2022/03/09 06:01:20;;;;;;;7.68;3.22;;;-3276.10;71.70;;;;;;5041418;28;20037;-71
2022/03/09 06:03:47;;;;;;;5.20;2.67;;;-3276.10;71.70;;;;;;5044775;28;20048;-70
2022/03/09 06:06:14;;;;;;;5.25;2.40;;;-3276.10;71.80;;;;;;5050625;28;20080;-70
2022/03/09 06:08:43;;;;;;;7.32;3.10;;;-3276.10;71.70;;;;;;5045688;28;20123;-70
2022/03/09 06:11:10;;;;;;;5.47;2.45;;;-3276.10;71.60;;;;;;5046150;28;20046;-71
2022/03/09 06:13:37;;;;;;;7.45;2.78;;;-3276.10;71.60;;;;;;5047037;28;20568;-71
2022/03/09 06:16:05;;;;;;;5.75;2.42;;;-3276.10;71.60;;;;;;5052476;28;20048;-71
2022/03/09 06:18:32;;;;;;;3.65;2.20;;;-3276.10;71.60;;;;;;5058805;28;20142;-70
2022/03/09 06:20:59;;;;;;;7.85;2.85;;;-3276.10;71.60;;;;;;5062356;28;20121;-71
2022/03/09 06:23:26;;;;;;;5.32;1.85;;;-3276.10;71.60;;;;;;5057798;28;20059;-70
2022/03/09 06:25:54;;;;;;;4.32;2.33;;;-3276.20;71.50;;;;;;5046366;28;20043;-69
2022/03/09 06:28:21;;;;;;;8.18;2.90;;;-3276.20;71.50;;;;;;5046024;28;20120;-70
2022/03/09 06:30:48;;;;;;;6.60;2.92;;;-3276.20;71.60;;;;;;5050082;28;20037;-70
2022/03/09 06:33:15;;;;;;;5.72;2.78;;;-3276.10;71.60;;;;;;5047219;28;20138;-70
2022/03/09 06:35:43;;;;;;;8.05;2.38;;;-3276.10;71.90;;;;;;5045527;28;20073;-68
2022/03/09 06:38:09;;;;;;;5.13;2.53;;;-3276.10;72.00;;;;;;5040436;28;20033;-70
2022/03/09 06:40:36;;;;;;;6.65;3.38;;;-3276.10;72.00;;;;;;5045443;28;20068;-70
2022/03/09 06:43:05;;;;;;;8.77;3.28;;;-3276.10;72.00;;;;;;5048881;28;20048;-69
2022/03/09 06:45:32;;;;;;;8.30;2.72;;;-3276.10;72.00;;;;;;5047194;28;20041;-70
2022/03/09 06:47:59;;;;;;;6.47;3.42;;;-3276.20;72.00;;;;;;5040103;28;20048;-71
2022/03/09 06:50:26;;;;;;;7.68;3.10;;;-3276.20;72.10;;;;;;5068143;28;20408;-69
2022/03/09 06:52:53;;;;;;;10.02;3.53;;;-3276.20;72.00;;;;;;5063238;28;20506;-70
2022/03/09 06:55:20;;;;;;;8.90;3.08;;;-3276.30;72.10;;;;;;5047538;28;20037;-70
2022/03/09 06:57:47;;;;;;;6.75;2.55;;;-3276.30;72.10;;;;;;5056620;28;20414;-70
2022/03/09 07:00:16;;;;;;;9.00;2.85;;;-3276.40;72.10;;;;;;5055651;28;20037;-70
2022/03/09 07:02:43;;;;;;;6.32;2.42;;;-3276.40;72.20;;;;;;5055941;28;20057;-70
2022/03/09 07:05:11;;;;;;;6.95;2.35;;;-3276.50;72.00;;;;;;5042797;28;20521;-69
2022/03/09 07:07:38;;;;;;;7.97;3.03;;;-3276.60;71.90;;;;;;5051896;28;20043;-70
2022/03/09 07:10:10;;;;;;;7.05;3.00;;;-3276.60;71.90;;;;;;5043063;28;20044;-71
2022/03/09 07:12:37;;;;;;;7.90;3.25;;;-3276.60;72.00;;;;;;5040382;28;20095;-71
2022/03/09 07:15:05;;;;;;;4.75;2.35;;;-3276.60;72.10;;;;;;5047108;28;20053;-70
2022/03/09 07:17:34;;;;;;;10.23;3.28;;;-3276.60;72.20;;;;;;5048896;28;20041;-70
2022/03/09 07:20:01;;;;;;;4.40;2.72;;;-3276.70;72.10;;;;;;5050173;28;20055;-69
2022/03/09 07:22:30;;;;;;;7.50;3.22;;;0.00;71.90;;;;;;5045940;28;20090;-70
2022/03/09 07:24:57;;;;;;;8.05;2.60;;;0.00;71.70;;;;;;5047770;28;20123;-69
2022/03/09 07:27:24;;;;;;;6.90;2.85;;;0.00;71.80;;;;;;5046294;28;20149;-70
2022/03/09 07:29:51;;;;;;;4.68;2.15;;;0.00;71.70;;;;;;5047369;28;20048;-71
2022/03/09 07:32:19;;;;;;;5.97;2.72;;;0.00;71.90;;;;;;5050181;28;20037;-69
2022/03/09 07:34:47;;;;;;;5.43;2.30;;;0.00;71.90;;;;;;5063616;28;20052;-71
2022/03/09 07:37:15;;;;;;;8.35;2.70;;;0.10;71.90;;;;;;5053575;28;20044;-69
2022/03/09 07:39:42;;;;;;;5.63;2.33;;;0.10;71.90;;;;;;5031761;28;20048;-71
2022/03/09 07:42:09;;;;;;;4.65;3.00;;;0.10;71.90;;;;;;5044963;28;20482;-70
2022/03/09 07:44:36;;;;;;;7.00;2.70;;;0.20;71.80;;;;;;5055912;28;20121;-71
2022/03/09 07:47:04;;;;;;;6.43;2.90;;;0.20;71.60;;;;;;5061583;28;20041;-69
2022/03/09 07:49:33;;;;;;;8.30;3.42;;;0.30;71.50;;;;;;5056625;28;20495;-71
2022/03/09 07:52:01;;;;;;;10.10;3.20;;;0.30;71.60;;;;;;5058203;28;20076;-71
2022/03/09 07:54:28;;;;;;;5.10;2.50;;;0.40;71.60;;;;;;5058052;28;20123;-71
2022/03/09 07:56:56;;;;;;;7.10;2.90;;;0.50;71.60;;;;;;5047974;28;20045;-71
2022/03/09 07:59:26;;;;;;;7.65;2.58;;;0.50;71.50;;;;;;5042452;28;20471;-70
2022/03/09 08:01:54;;;;;;;7.72;3.10;;;0.60;71.10;;;;;;5053955;28;20106;-70
2022/03/09 08:04:21;;;;;;;7.40;2.92;;;0.70;70.70;;;;;;5048637;28;20043;-71
2022/03/09 08:06:48;;;;;;;9.60;2.25;;;0.80;70.60;;;;;;5049204;28;20052;-69
2022/03/09 08:09:17;;;;;;;13.40;3.38;;;0.90;70.40;;;;;;5046556;28;20053;-71
2022/03/09 08:11:45;;;;;;;8.20;2.83;;;1.00;70.60;;;;;;5047854;28;20079;-71
2022/03/09 08:14:13;;;;;;;7.78;3.60;;;1.10;70.70;;;;;;5053191;28;20048;-71
2022/03/09 08:16:40;;;;;;;8.65;3.30;;;1.20;71.30;;;;;;5048536;28;20044;-71
2022/03/09 08:19:07;;;;;;;12.70;3.45;;;1.20;71.10;;;;;;5057162;28;20078;-70
2022/03/09 08:21:34;;;;;;;8.02;3.15;;;1.30;71.00;;;;;;5058628;28;20929;-68
2022/03/09 08:24:01;;;;;;;13.52;3.30;;;1.40;71.20;;;;;;5056948;28;20051;-70
2022/03/09 08:26:29;;;;;;;6.85;2.55;;;1.50;71.60;;;;;;5055581;28;20048;-69
2022/03/09 08:28:58;;;;;;;6.40;2.70;;;1.60;71.50;;;;;;5063556;28;20040;-70
2022/03/09 08:31:26;;;;;;;4.22;2.50;;;1.70;71.30;;;;;;5056382;28;20061;-70
2022/03/09 08:33:54;;;;;;;7.32;2.92;;;1.80;70.90;;;;;;5046664;28;20041;-70
2022/03/09 08:36:21;;;;;;;6.88;2.83;;;1.90;70.40;;;;;;5047458;28;20461;-69
2022/03/09 08:38:48;;;;;;;9.95;3.67;;;2.00;70.30;;;;;;5046942;28;20114;-69
2022/03/09 08:41:15;;;;;;;8.30;3.05;;;2.20;69.90;;;;;;5050316;28;20382;-70
2022/03/09 08:43:44;;;;;;;8.90;3.97;;;2.30;69.40;;;;;;5047493;28;20033;-70
2022/03/09 08:46:11;;;;;;;7.82;2.97;;;2.40;69.00;;;;;;5046531;28;20056;-71
2022/03/09 08:48:39;;;;;;;6.97;3.00;;;2.50;68.90;;;;;;5048821;28;20064;-71
2022/03/09 08:51:07;;;;;;;10.02;4.15;;;2.60;68.80;;;;;;5046513;28;20126;-71
2022/03/09 08:53:35;;;;;;;5.93;2.88;;;2.70;68.60;;;;;;5041866;28;21325;-70
2022/03/09 08:56:02;;;;;;;5.85;3.03;;;2.80;68.30;;;;;;5049445;28;22056;-70
2022/03/09 08:58:29;;;;;;;7.40;3.30;;;2.90;68.20;;;;;;5045751;28;20044;-70
2022/03/09 09:00:58;;;;;;;7.80;3.47;;;3.00;68.30;;;;;;5042290;28;20040;-71
2022/03/09 09:03:24;;;;;;;5.82;2.67;;;3.10;68.00;;;;;;5047203;28;20033;-70
2022/03/09 09:05:52;;;;;;;8.50;2.97;;;3.20;68.00;;;;;;5044094;28;20053;-70
2022/03/09 09:08:19;;;;;;;7.90;3.35;;;3.30;67.40;;;;;;5048535;28;20041;-71
2022/03/09 09:10:46;;;;;;;6.97;2.85;;;3.40;67.60;;;;;;5045621;28;20148;-71
2022/03/09 09:13:14;;;;;;;9.68;3.97;;;3.50;67.80;;;;;;5052708;28;20131;-71
2022/03/09 09:15:42;;;;;;;7.95;3.92;;;3.60;67.20;;;;;;5055548;28;20955;-71
2022/03/09 09:18:10;;;;;;;7.25;3.22;;;3.70;67.30;;;;;;5056322;28;20092;-70
2022/03/09 09:20:37;;;;;;;6.07;3.38;;;3.80;67.30;;;;;;5057729;28;20120;-71
2022/03/09 09:23:05;;;;;;;6.75;2.58;;;3.90;66.40;;;;;;5059552;28;20056;-71
2022/03/09 09:25:32;;;;;;;3.72;1.85;;;4.00;66.60;;;;;;5052306;28;21319;-71
2022/03/09 09:28:00;;;;;;;6.43;2.45;;;4.10;65.80;;;;;;5041618;28;20056;-70
2022/03/09 09:30:30;;;;;;;6.13;2.40;;;4.20;65.30;;;;;;5047522;28;20045;-70
2022/03/09 09:32:57;;;;;;;5.13;2.53;;;4.30;65.90;;;;;;5047333;28;20048;-71
2022/03/09 09:35:25;;;;;;;5.88;2.63;;;4.50;63.20;;;;;;5045991;28;20498;-71
2022/03/09 09:37:52;;;;;;;6.90;3.47;;;4.60;63.50;;;;;;5038152;28;20037;-71
2022/03/09 09:40:20;;;;;;;6.22;2.83;;;4.60;63.20;;;;;;5041243;28;20061;-70
2022/03/09 09:42:47;;;;;;;6.03;2.88;;;4.70;62.10;;;;;;5044344;28;20049;-70
2022/03/09 09:45:13;;;;;;;5.22;3.00;;;4.80;62.00;;;;;;5041208;28;20517;-70
2022/03/09 09:47:40;;;;;;;9.45;2.38;;;4.90;62.10;;;;;;5043490;28;20044;-71
2022/03/09 09:50:09;;;;;;;6.70;3.13;;;5.00;61.50;;;;;;5056322;28;20055;-70
2022/03/09 09:56:32;;;;;;;6.65;2.80;;;5.20;62.20;;;;;;5043970;28;20124;-71
2022/03/09 09:59:00;;;;;;;5.28;3.05;;;5.20;61.60;;;;;;5055033;28;20385;-70
2022/03/09 10:01:27;;;;;;;8.35;3.30;;;5.30;61.50;;;;;;5046178;28;20051;-71
2022/03/09 10:03:54;;;;;;;8.23;3.45;;;5.40;61.20;;;;;;5043047;28;20037;-70
2022/03/09 10:06:21;;;;;;;10.30;3.65;;;5.40;60.90;;;;;;5047432;28;20750;-70
2022/03/09 10:09:00;;;;;;;6.72;3.35;;;5.50;60.60;;;;;;5045608;28;20055;-70
2022/03/09 10:11:45;;;;;;;7.00;3.05;;;5.70;60.10;;;;;;5045680;28;20041;-71
2022/03/09 10:14:12;;;;;;;6.78;3.28;;;5.70;60.10;;;;;;5040675;28;20047;-72
2022/03/09 10:16:59;;;;;;;7.13;3.05;;;5.80;59.90;;;;;;5043323;28;20044;-71
2022/03/09 10:19:30;;;;;;;7.57;3.25;;;5.80;59.50;;;;;;5046070;28;20040;-72
2022/03/09 10:21:57;;;;;;;8.88;3.45;;;5.90;60.20;;;;;;5041800;28;20048;-71
2022/03/09 10:24:34;;;;;;;6.63;3.25;;;5.90;60.20;;;;;;5054540;28;20129;-71
2022/03/09 10:27:03;;;;;;;6.78;2.72;;;6.10;59.20;;;;;;5068531;28;20072;-71
2022/03/09 10:29:29;;;;;;;4.95;2.38;;;6.10;58.60;;;;;;5051070;28;20057;-71
2022/03/09 10:31:59;;;;;;;4.68;2.35;;;6.20;58.30;;;;;;5056001;28;20037;-70
2022/03/09 10:34:29;;;;;;;5.82;2.58;;;6.20;57.80;;;;;;5054878;28;20041;-71
2022/03/09 10:36:59;;;;;;;8.05;3.53;;;6.30;57.70;;;;;;5044424;28;20044;-71
2022/03/09 10:39:28;;;;;;;6.90;2.72;;;6.40;57.60;;;;;;5042228;28;20139;-71
2022/03/09 10:41:55;;;;;;;6.05;2.88;;;6.40;57.70;;;;;;5063559;28;20045;-72
2022/03/09 10:44:42;;;;;;;6.82;2.67;;;6.40;57.30;;;;;;5046728;28;20051;-71
2022/03/09 10:47:09;;;;;;;7.18;3.50;;;6.50;57.60;;;;;;5043861;28;20052;-73
2022/03/09 10:49:36;;;;;;;5.28;2.75;;;6.60;57.40;;;;;;5044662;28;20045;-72
2022/03/09 10:52:04;;;;;;;5.85;2.60;;;6.60;57.30;;;;;;5042192;28;20083;-73
2022/03/09 10:54:35;;;;;;;5.85;3.03;;;6.70;57.80;;;;;;5041968;28;20055;-72
2022/03/09 10:57:07;;;;;;;9.57;3.45;;;6.70;57.10;;;;;;5050325;28;20042;-69
2022/03/09 10:59:48;;;;;;;5.82;2.60;;;6.80;56.90;;;;;;5057078;28;20045;-71
2022/03/09 11:02:19;;;;;;;5.55;2.65;;;6.80;56.70;;;;;;5051802;28;20405;-71
2022/03/09 11:05:07;;;;;;;7.70;2.88;;;6.90;56.90;;;;;;5053750;28;20044;-72
2022/03/09 11:07:35;;;;;;;8.63;3.05;;;6.90;56.70;;;;;;5052527;28;20037;-71
2022/03/09 11:10:03;;;;;;;6.57;2.72;;;7.00;55.90;;;;;;5042160;28;20880;-71
2022/03/09 11:12:30;;;;;;;5.78;2.67;;;7.00;55.90;;;;;;5054208;28;20045;-71
2022/03/09 11:14:59;;;;;;;7.93;3.65;;;7.10;56.90;;;;;;5052744;28;20571;-71
2022/03/09 11:17:26;;;;;;;9.15;3.22;;;7.10;56.30;;;;;;5042044;28;20391;-71
2022/03/09 11:19:54;;;;;;;8.45;3.13;;;7.10;55.40;;;;;;5029903;28;20045;-70
2022/03/09 11:22:21;;;;;;;10.88;3.40;;;7.20;55.60;;;;;;5037983;28;20103;-70
2022/03/09 11:24:49;;;;;;;7.45;3.50;;;7.20;55.50;;;;;;5045854;28;20797;-73
2022/03/09 11:27:17;;;;;;;7.13;3.55;;;7.30;55.60;;;;;;5043800;28;20061;-72
2022/03/09 11:29:44;;;;;;;6.50;3.28;;;7.30;53.80;;;;;;5039349;28;20541;-71
2022/03/09 11:32:14;;;;;;;8.63;3.08;;;7.30;54.70;;;;;;5056846;28;20055;-72
2022/03/09 11:34:43;;;;;;;5.93;2.08;;;7.30;54.80;;;;;;5053564;28;20049;-70
2022/03/09 11:37:11;;;;;;;5.57;2.25;;;7.40;54.90;;;;;;5052911;28;20138;-70
2022/03/09 11:39:39;;;;;;;6.45;2.53;;;7.40;54.00;;;;;;5054053;28;20048;-71
2022/03/09 11:42:37;;;;;;;5.07;2.47;;;7.40;54.30;;;;;;5052184;28;20040;-70
2022/03/09 11:49:00;;;;;;;5.88;2.85;;;7.50;54.00;;;;;;4965243;28;20041;-70
2022/03/09 11:51:28;;;;;;;5.85;2.47;;;7.60;53.90;;;;;;4965946;28;20054;-71
2022/03/09 11:53:56;;;;;;;5.50;2.83;;;7.50;53.60;;;;;;5021194;28;20772;-71
2022/03/09 11:56:36;;;;;;;6.05;2.40;;;7.60;53.50;;;;;;5045189;28;20047;-71
2022/03/09 11:59:20;;;;;;;5.07;2.28;;;7.60;53.60;;;;;;5035401;28;20037;-71
2022/03/09 12:02:23;;;;;;;7.15;2.60;;;7.60;53.50;;;;;;5041740;28;20406;-69
2022/03/09 12:04:54;;;;;;;4.63;1.92;;;7.60;53.30;;;;;;5042880;28;20040;-71
2022/03/09 12:07:58;;;;;;;5.00;2.30;;;7.60;53.40;;;;;;5043095;28;20048;-71
2022/03/09 12:10:49;;;;;;;5.25;3.13;;;7.60;53.60;;;;;;5044229;28;20052;-70
2022/03/09 12:13:17;;;;;;;;;;;7.60;53.60;;;;;;5055583;28;20046;-70
2022/03/09 12:16:07;;;;;;;7.03;2.35;;;7.60;53.20;;;;;;5041436;28;19982;-71
2022/03/09 12:18:40;;;;;;;6.30;2.33;;;7.60;53.50;;;;;;5053497;28;20068;-69
2022/03/09 12:21:10;;;;;;;5.93;2.65;;;7.60;53.60;;;;;;5042860;28;20037;-70
2022/03/09 12:24:29;;;;;;;7.63;2.83;;;7.60;53.80;;;;;;5047135;28;20519;-70
2022/03/09 12:34:46;;;;;;;5.75;2.28;;;7.70;53.70;;;;;;5058850;28;20563;-69
2022/03/09 12:41:24;;;;;;;6.50;2.83;;;7.70;54.10;;;;;;5035254;28;20052;-71
2022/03/09 12:44:00;;;;;;;7.18;2.05;;;7.70;53.70;;;;;;5055498;28;20055;-70
2022/03/09 12:46:29;;;;;;;7.95;2.58;;;7.70;53.60;;;;;;5045896;28;20056;-71
2022/03/09 12:49:03;;;;;;;5.32;1.92;;;7.70;53.60;;;;;;5041371;28;20041;-71
2022/03/09 12:51:31;;;;;;;5.32;1.92;;;7.70;53.30;;;;;;5052303;28;20047;-70
2022/03/09 12:53:58;;;;;;;5.25;2.15;;;7.70;53.40;;;;;;5049361;28;20055;-71
2022/03/09 12:56:28;;;;;;;5.05;1.85;;;7.70;52.60;;;;;;5054177;28;20071;-70
2022/03/09 12:59:09;;;;;;;6.75;2.20;;;7.80;53.00;;;;;;5052419;28;20113;-72
2022/03/09 13:01:36;;;;;;;6.45;2.10;;;7.80;52.70;;;;;;5045962;28;20485;-71
2022/03/09 13:04:04;;;;;;;6.07;2.20;;;7.80;52.30;;;;;;5046157;28;20072;-71
2022/03/09 13:06:33;;;;;;;5.50;2.00;;;7.80;52.80;;;;;;5032861;28;20057;-71
2022/03/09 13:09:01;;;;;;;5.55;1.90;;;7.80;52.60;;;;;;5053526;28;20055;-71
2022/03/09 13:11:30;;;;;;;3.70;1.83;;;7.90;52.40;;;;;;5067974;28;20049;-71